createdAt,value
2023-05-03T00:01:55.102Z,3.99
2023-05-03T00:08:37.399Z,3.97
2023-05-03T00:15:19.651Z,3.96
2023-05-03T00:22:01.963Z,3.97
2023-05-03T00:28:44.254Z,3.97
2023-05-03T00:35:28.067Z,3.98
2023-05-03T00:42:10.543Z,3.99
2023-05-03T00:48:53.050Z,3.98
2023-05-03T00:55:36.472Z,3.98
2023-05-03T01:02:18.763Z,3.97
2023-05-03T01:09:23.142Z,3.94
2023-05-03T01:16:27.148Z,3.95
2023-05-03T01:23:48.211Z,3.99
2023-05-03T01:30:32.947Z,4.04
2023-05-03T01:37:15.147Z,4.02
2023-05-03T01:43:58.493Z,4.03
2023-05-03T01:50:40.721Z,4.03
2023-05-03T01:57:23.115Z,4.02
2023-05-03T02:04:05.405Z,3.99
2023-05-03T02:10:47.633Z,3.95
2023-05-03T02:17:31.932Z,3.91
2023-05-03T02:24:14.109Z,3.84
2023-05-03T02:30:57.488Z,3.78
2023-05-03T02:37:39.978Z,3.72
2023-05-03T02:44:26.483Z,3.66
2023-05-03T02:51:08.779Z,3.61
2023-05-03T02:57:51.102Z,3.52
2023-05-03T03:04:35.412Z,3.42
2023-05-03T03:11:18.185Z,3.35
2023-05-03T03:18:01.005Z,3.26
2023-05-03T03:24:43.718Z,3.20
2023-05-03T03:31:26.181Z,3.11
2023-05-03T03:38:11.225Z,3.01
2023-05-03T03:45:00.769Z,3.00
2023-05-03T03:51:43.028Z,3.00
2023-05-03T03:58:25.381Z,3.03
2023-05-03T04:05:08.841Z,3.09
2023-05-03T04:11:51.621Z,3.18
2023-05-03T04:18:34.958Z,3.28
2023-05-03T04:25:18.958Z,3.38
2023-05-03T04:32:09.909Z,3.50
2023-05-03T04:38:53.101Z,3.62
2023-05-03T04:45:36.117Z,3.79
2023-05-03T04:52:18.688Z,3.99
2023-05-03T04:59:01.679Z,4.17
2023-05-03T05:05:43.960Z,4.36
2023-05-03T05:12:27.897Z,4.58
2023-05-03T05:19:10.213Z,4.81
2023-05-03T05:25:54.033Z,5.05
2023-05-03T05:32:36.558Z,5.32
2023-05-03T05:39:19.332Z,5.57
2023-05-03T05:46:01.721Z,5.87
2023-05-03T05:52:44.795Z,6.12
2023-05-03T05:59:31.453Z,6.36
2023-05-03T06:06:15.044Z,6.65
2023-05-03T06:12:57.919Z,6.96
2023-05-03T06:19:43.785Z,7.24
2023-05-03T06:26:27.304Z,7.49
2023-05-03T06:33:14.749Z,7.68
2023-05-03T06:39:59.129Z,7.88
2023-05-03T06:46:41.769Z,8.08
2023-05-03T06:53:24.253Z,8.30
2023-05-03T07:00:07.464Z,8.51
2023-05-03T07:13:37.487Z,9.03
2023-05-03T07:20:19.916Z,9.26
2023-05-03T07:27:02.338Z,9.50
2023-05-03T07:33:44.669Z,9.82
2023-05-03T07:40:28.791Z,10.05
2023-05-03T07:47:11.003Z,10.31
2023-05-03T07:53:53.289Z,10.60
2023-05-03T08:00:35.767Z,10.82
2023-05-03T08:07:17.956Z,11.07
2023-05-03T08:14:00.263Z,11.30
2023-05-03T08:20:42.453Z,11.53
2023-05-03T08:27:26.508Z,11.76
2023-05-03T08:34:10.745Z,12.06
2023-05-03T08:40:58.115Z,12.30
2023-05-03T08:47:44.966Z,12.45
2023-05-03T08:54:27.737Z,12.79
2023-05-03T09:01:10.263Z,13.03
2023-05-03T09:08:12.590Z,13.23
2023-05-03T09:14:54.907Z,13.48
2023-05-03T09:21:37.885Z,13.78
2023-05-03T09:28:21.276Z,14.07
2023-05-03T09:35:10.666Z,14.17
2023-05-03T09:41:54.052Z,14.53
2023-05-03T09:48:38.156Z,14.57
2023-05-03T09:55:22.126Z,14.75
2023-05-03T10:02:07.760Z,14.95
2023-05-03T10:09:02.061Z,14.82
2023-05-03T10:15:45.216Z,14.51
2023-05-03T10:22:27.456Z,14.07
2023-05-03T10:29:35.160Z,14.09
2023-05-03T10:36:17.374Z,14.43
2023-05-03T10:43:01.016Z,14.31
2023-05-03T10:49:43.280Z,14.51
2023-05-03T10:56:25.420Z,15.00
2023-05-03T11:03:54.714Z,15.49
2023-05-03T11:10:37.233Z,15.13
2023-05-03T11:17:19.484Z,15.01
2023-05-03T11:24:02.471Z,15.37
2023-05-03T11:38:16.591Z,16.79
2023-05-03T11:45:00.373Z,16.78
2023-05-03T11:51:46.485Z,16.51
2023-05-03T11:58:30.094Z,16.41
2023-05-03T12:05:13.074Z,16.84
2023-05-03T12:11:58.255Z,17.14
2023-05-03T12:18:56.157Z,17.05
2023-05-03T12:25:40.568Z,16.94
2023-05-03T12:32:26.303Z,17.15
2023-05-03T12:39:10.203Z,17.27
2023-05-03T12:46:08.663Z,17.87
2023-05-03T12:52:55.419Z,18.50
2023-05-03T12:59:40.989Z,18.42
2023-05-03T13:06:25.184Z,18.02
2023-05-03T13:13:07.707Z,17.82
2023-05-03T13:19:51.463Z,17.53
2023-05-03T13:26:33.849Z,17.48
2023-05-03T13:33:17.875Z,17.77
2023-05-03T13:40:00.045Z,17.72
2023-05-03T13:46:43.549Z,17.90
2023-05-03T13:53:26.866Z,18.38
2023-05-03T14:00:10.245Z,18.87
2023-05-03T14:06:52.490Z,19.11
2023-05-03T14:13:47.618Z,19.21
2023-05-03T14:20:37.936Z,18.99
2023-05-03T14:27:21.712Z,18.87
2023-05-03T14:34:03.757Z,18.76
2023-05-03T14:40:46.282Z,18.63
2023-05-03T14:47:28.740Z,18.33
2023-05-03T14:54:11.881Z,17.73
2023-05-03T15:00:54.129Z,17.24
2023-05-03T15:07:36.457Z,17.30
2023-05-03T15:14:19.570Z,17.41
2023-05-03T15:21:03.414Z,17.48
2023-05-03T15:27:48.785Z,17.48
2023-05-03T15:34:35.393Z,17.42
2023-05-03T15:41:17.789Z,17.31
2023-05-03T15:48:00.678Z,17.13
2023-05-03T15:54:43.165Z,17.00
2023-05-03T16:01:25.650Z,16.85
2023-05-03T16:08:08.363Z,16.61
2023-05-03T16:14:50.671Z,16.33
2023-05-03T16:21:33.176Z,16.10
2023-05-03T16:28:16.249Z,15.81
2023-05-03T16:34:58.538Z,15.45
2023-05-03T16:41:41.724Z,15.12
2023-05-03T16:48:24.152Z,14.64
2023-05-03T16:55:09.921Z,14.22
2023-05-03T17:01:52.232Z,13.90
2023-05-03T17:08:34.601Z,13.59
2023-05-03T17:15:17.317Z,13.28
2023-05-03T17:21:59.880Z,12.98
2023-05-03T17:28:44.023Z,12.68
2023-05-03T17:35:26.471Z,12.32
2023-05-03T17:42:09.328Z,12.02
2023-05-03T17:48:52.196Z,11.74
2023-05-03T17:55:38.118Z,11.51
2023-05-03T18:02:21.684Z,11.21
2023-05-03T18:09:04.384Z,10.92
2023-05-03T18:15:46.674Z,10.66
2023-05-03T18:22:28.958Z,10.40
2023-05-03T18:29:11.597Z,10.20
2023-05-03T18:35:54.257Z,10.01
2023-05-03T18:42:36.703Z,9.81
2023-05-03T18:49:19.087Z,9.65
2023-05-03T18:56:02.466Z,9.41
2023-05-03T19:02:45.144Z,9.10
2023-05-03T19:09:27.873Z,8.92
2023-05-03T19:16:10.236Z,8.67
2023-05-03T19:22:52.403Z,8.46
2023-05-03T19:29:34.511Z,8.34
2023-05-03T19:36:17.737Z,8.19
2023-05-03T19:42:59.958Z,8.04
2023-05-03T19:49:43.498Z,7.76
2023-05-03T19:56:25.752Z,7.59
2023-05-03T20:03:07.983Z,7.45
2023-05-03T20:09:50.300Z,7.26
2023-05-03T20:16:37.431Z,6.99
2023-05-03T20:23:19.702Z,6.81
2023-05-03T20:30:04.210Z,6.67
2023-05-03T20:36:46.513Z,6.58
2023-05-03T20:43:28.714Z,6.50
2023-05-03T20:50:11.896Z,6.44
2023-05-03T20:56:53.994Z,6.37
2023-05-03T21:03:36.335Z,6.31
2023-05-03T21:10:18.748Z,6.20
2023-05-03T21:17:01.481Z,6.11
2023-05-03T21:23:45.022Z,6.03
2023-05-03T21:30:28.156Z,5.87
2023-05-03T21:37:10.768Z,5.75
2023-05-03T21:43:52.900Z,5.72
2023-05-03T21:50:40.975Z,5.64
2023-05-03T21:57:23.107Z,5.62
2023-05-03T22:04:05.720Z,5.55
2023-05-03T22:10:48.911Z,5.54
2023-05-03T22:17:34.183Z,5.50
2023-05-03T22:24:16.409Z,5.49
2023-05-03T22:30:58.822Z,5.46
2023-05-03T22:37:41.732Z,5.43
2023-05-03T22:44:24.014Z,5.40
2023-05-03T22:51:06.523Z,5.36
2023-05-03T22:57:48.810Z,5.26
2023-05-03T23:04:31.225Z,5.14
2023-05-03T23:11:13.383Z,5.04
2023-05-03T23:17:56.112Z,4.84
2023-05-03T23:24:39.601Z,4.77
2023-05-03T23:31:21.944Z,4.67
2023-05-03T23:38:04.572Z,4.61
2023-05-03T23:44:54.806Z,4.40
2023-05-03T23:51:37.882Z,4.29
2023-05-03T23:58:20.105Z,4.18
